Pagrindinis puslapis
METAR-TAF:

METAR-TAF

Oro uostai :

Mačala, Ekvadoras

platuma: 03-26-07S, ilguma: 079-58-40W, Aukštis: 52 m

Dabartinis oras

Ataskaita buvo paskelbta 55 minutes, ne 12:00 UTC
Vėjas 4 kt iš Šiaurės Rytų
Temperatūra 24°C
Drėgmė 94%
Slėgis 1013 hPa
Matomumas 10 km arba daugiau
Su prošvaistėmis ne aukštis 3300 ft
Apsiniaukę ne aukštis 8000 ft

METAR: SERO 281200Z 04004KT 9999 BKN033 OVC080 24/23 Q1013

Laikas: 07:55 (12:55 UTC)


TAF: trūkstamas

Orai ataskaitas ir orų prognozės (METAR, TAF).

turimą stotys yra geltonos ir raudonos taškus žemėlapyje.

Perkelti pele per norėdami pamatyti stoties vardą.

Tada spustelėkite, norėdami matyti oro stebėjimo ir prognozės.

Norėdami pakeisti žemėlapį: spustelėkite ant žalios mygtukų su juodo kryžiaus žemyn,; žalią mygtuką su brūkšneliu, jei norite nutolinti; arba žalių rodyklių gretimoms žemėlapius.


METAR-TAF: